Santa Pola, Spain
Current Conditions -  °F | °C
As of 9:30 AM on Friday 31 Oct 2014 (Local Time) from LEAL Reporting Station
Scattered Clouds Scattered Clouds  
Wind Chill: 21°   Ceiling: Unl
Heat Index: 21°   Visibility: 6mi
Dew Point: 17°   Wind: 3mph
Humidity: 78%   Direction: 350°N
Pressure: 30.24"   Gusts: NA
Location:  38.19°N, 0.56°W
Report Text: LEAL 310830Z 35003KT 300V050 9999 SCT015 21/17 Q1024 NOSIG
Loading
Personal Weather Stations






























Interactive Weather Map
Tropical Storm Tracking
New forecast layout! Learn more

10-Day Weather Forecast

Advertisements
Track Severe Weather on mobile